createdAt,value
2018-06-13T00:02:25.655Z,96.60
2018-06-13T00:04:54.715Z,96.60
2018-06-13T00:07:23.776Z,96.50
2018-06-13T00:09:52.843Z,96.40
2018-06-13T00:12:21.912Z,96.10
2018-06-13T00:14:50.984Z,95.90
2018-06-13T00:17:20.012Z,95.90
2018-06-13T00:19:49.341Z,95.90
2018-06-13T00:22:18.982Z,95.90
2018-06-13T00:24:48.051Z,95.90
2018-06-13T00:27:17.095Z,96.10
2018-06-13T00:29:46.147Z,95.90
2018-06-13T00:32:15.188Z,95.70
2018-06-13T00:34:44.418Z,95.70
2018-06-13T00:37:13.487Z,95.70
2018-06-13T00:39:42.520Z,95.70
2018-06-13T00:44:41.239Z,95.50
2018-06-13T00:47:10.269Z,95.40
2018-06-13T00:49:39.307Z,95.50
2018-06-13T00:52:08.355Z,95.60
2018-06-13T00:54:38.094Z,95.40
2018-06-13T00:57:07.132Z,95.30
2018-06-13T00:59:36.190Z,95.20
2018-06-13T01:02:05.235Z,95.20
2018-06-13T01:07:02.906Z,95.30
2018-06-13T01:10:34.789Z,95.30
2018-06-13T01:13:03.863Z,95.20
2018-06-13T01:15:32.908Z,95.00
2018-06-13T01:18:01.952Z,94.70
2018-06-13T01:20:30.994Z,94.80
2018-06-13T01:23:00.048Z,94.70
2018-06-13T01:25:29.067Z,94.80
2018-06-13T01:27:58.144Z,94.90
2018-06-13T01:30:27.235Z,95.20
2018-06-13T01:32:56.288Z,95.00
2018-06-13T01:35:25.567Z,94.90
2018-06-13T01:37:54.611Z,94.90
2018-06-13T01:40:23.667Z,95.10
2018-06-13T01:42:52.703Z,95.30
2018-06-13T01:45:21.979Z,95.40
2018-06-13T01:47:51.315Z,95.50
2018-06-13T01:50:20.565Z,95.30
2018-06-13T01:52:49.663Z,95.20
2018-06-13T01:55:18.955Z,95.20
2018-06-13T01:57:48.200Z,95.20
2018-06-13T02:00:17.239Z,95.20
2018-06-13T02:02:46.288Z,94.90
2018-06-13T02:05:17.635Z,94.60
2018-06-13T02:07:46.731Z,94.40
2018-06-13T02:10:15.914Z,94.30
2018-06-13T02:12:45.523Z,94.20
2018-06-13T02:15:14.543Z,94.40
2018-06-13T02:17:44.497Z,94.40
2018-06-13T02:20:13.514Z,94.20
2018-06-13T02:22:42.640Z,94.20
2018-06-13T02:25:11.666Z,94.20
2018-06-13T02:27:40.695Z,94.20
2018-06-13T02:30:09.883Z,94.10
2018-06-13T02:32:42.060Z,94.00
2018-06-13T02:35:11.103Z,93.90
2018-06-13T02:37:40.142Z,93.90
2018-06-13T02:40:09.167Z,93.90
2018-06-13T02:42:38.321Z,94.10
2018-06-13T02:45:07.397Z,94.40
2018-06-13T03:11:22.263Z,94.90
2018-06-13T03:13:51.312Z,94.60
2018-06-13T03:16:20.576Z,95.00
2018-06-13T03:18:49.611Z,94.90
2018-06-13T03:21:18.664Z,95.20
2018-06-13T03:23:53.955Z,95.30
2018-06-13T03:26:22.999Z,95.20
2018-06-13T03:28:52.355Z,95.40
2018-06-13T03:33:50.030Z,95.50
2018-06-13T03:36:19.054Z,95.30
2018-06-13T03:38:48.089Z,95.20
2018-06-13T03:41:17.451Z,95.10
2018-06-13T03:43:47.343Z,94.80
2018-06-13T03:46:16.504Z,94.80
2018-06-13T03:48:45.553Z,95.40
2018-06-13T03:53:43.216Z,95.00
2018-06-13T03:56:12.273Z,94.60
2018-06-13T03:58:41.303Z,94.60
2018-06-13T04:18:57.940Z,93.40
2018-06-13T04:21:26.983Z,93.50
2018-06-13T04:23:56.029Z,93.40
2018-06-13T04:26:25.075Z,93.30
2018-06-13T04:28:54.124Z,93.60
2018-06-13T04:31:23.248Z,93.10
2018-06-13T04:33:52.260Z,93.50
2018-06-13T04:36:21.308Z,93.40
2018-06-13T04:38:50.351Z,93.30
2018-06-13T04:41:19.400Z,93.20
2018-06-13T04:43:48.440Z,93.30
2018-06-13T04:46:17.481Z,92.30
2018-06-13T04:48:46.531Z,92.60
2018-06-13T04:51:15.590Z,92.10
2018-06-13T04:53:44.635Z,92.30
2018-06-13T04:56:13.679Z,92.10
2018-06-13T04:58:42.709Z,92.30
2018-06-13T05:01:11.770Z,91.70
2018-06-13T05:03:40.820Z,91.70
2018-06-13T05:06:09.848Z,91.50
2018-06-13T05:08:38.932Z,90.90
2018-06-13T05:13:36.619Z,90.50
2018-06-13T05:16:05.708Z,90.80
2018-06-13T05:18:34.744Z,90.30
2018-06-13T05:21:03.775Z,90.00
2018-06-13T05:23:33.080Z,89.20
2018-06-13T05:26:02.159Z,89.70
2018-06-13T05:28:31.171Z,89.20
2018-06-13T05:31:00.198Z,88.90
2018-06-13T05:33:29.246Z,88.30
2018-06-13T05:35:58.320Z,85.70
2018-06-13T05:38:27.376Z,87.10
2018-06-13T05:40:56.431Z,87.10
2018-06-13T05:43:25.463Z,86.70
2018-06-13T05:45:54.481Z,86.20
2018-06-13T05:48:23.859Z,84.30
2018-06-13T05:50:52.938Z,85.30
2018-06-13T05:53:22.403Z,83.60
2018-06-13T05:55:51.636Z,83.90
2018-06-13T05:58:21.075Z,84.30
2018-06-13T06:00:50.174Z,83.30
2018-06-13T06:03:19.489Z,84.20
2018-06-13T06:05:51.447Z,84.10
2018-06-13T06:08:20.507Z,82.00
2018-06-13T06:10:49.560Z,81.10
2018-06-13T06:13:18.844Z,80.40
2018-06-13T06:18:01.704Z,77.20
2018-06-13T06:22:59.723Z,74.60
2018-06-13T06:35:23.359Z,75.40
2018-06-13T06:40:21.063Z,72.60
2018-06-13T06:42:50.141Z,73.50
2018-06-13T06:50:16.478Z,70.00
2018-06-13T07:03:43.716Z,66.90
2018-06-13T07:06:12.755Z,62.30
2018-06-13T07:11:10.846Z,61.10
2018-06-13T07:13:39.937Z,60.50
2018-06-13T07:31:00.976Z,56.40
2018-06-13T07:43:24.568Z,48.60
2018-06-13T07:45:53.618Z,50.60
2018-06-13T07:48:22.681Z,51.50
2018-06-13T07:53:20.857Z,50.90
2018-06-13T07:55:49.903Z,49.30
2018-06-13T08:03:16.540Z,51.20
2018-06-13T08:08:14.432Z,44.80
2018-06-13T08:10:43.492Z,41.70
2018-06-13T08:13:12.540Z,42.70
2018-06-13T08:18:10.199Z,40.20
2018-06-13T08:33:03.859Z,40.50
2018-06-13T08:38:03.187Z,38.70
2018-06-13T08:40:33.091Z,40.30
2018-06-13T08:43:04.340Z,40.50
2018-06-13T08:50:34.920Z,40.00
2018-06-13T08:55:35.772Z,35.70
2018-06-13T09:00:36.219Z,38.00
2018-06-13T09:08:04.316Z,40.50
2018-06-13T09:13:03.083Z,43.80
2018-06-13T09:20:30.239Z,45.80
2018-06-13T09:30:26.340Z,45.50
2018-06-13T09:40:21.359Z,45.20
2018-06-13T09:42:50.711Z,43.00
2018-06-13T09:47:48.929Z,43.30
2018-06-13T09:50:18.452Z,45.00
2018-06-13T09:52:47.746Z,44.40
2018-06-13T09:55:17.120Z,44.00
2018-06-13T10:00:21.148Z,46.00
2018-06-13T10:02:50.196Z,45.90
2018-06-13T10:07:48.370Z,44.50
2018-06-13T10:10:17.471Z,43.90
2018-06-13T10:12:46.729Z,44.40
2018-06-13T10:15:15.817Z,43.80
2018-06-13T10:17:44.912Z,46.90
2018-06-13T10:20:14.998Z,43.30
2018-06-13T10:22:44.592Z,42.60
2018-06-13T10:25:14.010Z,44.20
2018-06-13T10:27:43.501Z,45.30
2018-06-13T10:30:12.800Z,41.40
2018-06-13T10:32:42.099Z,42.00
2018-06-13T10:35:12.112Z,43.30
2018-06-13T10:37:41.605Z,42.60
2018-06-13T10:40:11.232Z,42.70
2018-06-13T10:45:09.519Z,42.80
2018-06-13T10:47:39.095Z,43.30
2018-06-13T10:50:08.739Z,44.60
2018-06-13T10:55:06.635Z,43.70
2018-06-13T10:57:36.320Z,43.50
2018-06-13T11:00:05.624Z,45.00
2018-06-13T11:02:35.253Z,44.50
2018-06-13T11:05:05.045Z,44.90
2018-06-13T11:07:34.067Z,45.90
2018-06-13T11:10:03.447Z,46.40
2018-06-13T11:12:32.775Z,44.80
2018-06-13T11:15:01.815Z,45.30
2018-06-13T11:17:30.963Z,43.90
2018-06-13T11:20:00.029Z,43.50
2018-06-13T11:22:29.312Z,43.00
2018-06-13T11:24:58.396Z,42.60
2018-06-13T11:27:27.455Z,42.30
2018-06-13T11:29:56.565Z,42.50
2018-06-13T11:32:25.608Z,43.00
2018-06-13T11:34:57.830Z,41.90
2018-06-13T11:42:25.518Z,43.90
2018-06-13T11:44:54.584Z,43.50
2018-06-13T11:47:23.612Z,41.90
2018-06-13T11:49:52.706Z,41.90
2018-06-13T11:52:21.765Z,42.20
2018-06-13T11:54:50.834Z,42.60
2018-06-13T11:57:20.079Z,42.30
2018-06-13T11:59:49.124Z,42.90
2018-06-13T12:02:18.186Z,42.60
2018-06-13T12:07:15.972Z,46.00
2018-06-13T12:09:45.029Z,46.90
2018-06-13T12:12:14.072Z,43.10
2018-06-13T12:14:43.473Z,43.60
2018-06-13T12:17:12.921Z,42.30
2018-06-13T12:19:41.979Z,40.90
2018-06-13T12:22:11.415Z,42.60
2018-06-13T12:27:15.675Z,42.20
2018-06-13T12:29:44.715Z,43.00
2018-06-13T12:32:13.779Z,43.40
2018-06-13T12:34:43.171Z,42.80
2018-06-13T12:37:12.209Z,43.40
2018-06-13T12:39:41.560Z,43.00
2018-06-13T12:42:10.621Z,43.40
2018-06-13T12:44:40.000Z,45.40
2018-06-13T12:47:09.468Z,42.80
2018-06-13T12:49:38.547Z,40.70
2018-06-13T12:52:07.924Z,42.80
2018-06-13T12:57:06.080Z,42.80
2018-06-13T12:59:35.479Z,42.60
2018-06-13T13:02:04.588Z,42.80
2018-06-13T13:07:02.486Z,43.30
2018-06-13T13:09:32.133Z,44.50
2018-06-13T13:14:30.069Z,43.90
2018-06-13T13:16:59.122Z,42.70
2018-06-13T13:26:55.154Z,44.40
2018-06-13T13:29:24.194Z,42.60
2018-06-13T13:34:21.875Z,43.80
2018-06-13T13:36:50.899Z,43.70
2018-06-13T13:39:19.941Z,40.40
2018-06-13T13:41:48.978Z,42.30
2018-06-13T13:44:18.060Z,43.30
2018-06-13T13:46:47.085Z,42.90
2018-06-13T13:56:42.077Z,42.30
2018-06-13T14:09:07.590Z,42.70
2018-06-13T14:16:33.974Z,40.80
2018-06-13T14:21:31.733Z,40.80
2018-06-13T14:31:26.863Z,41.20
2018-06-13T14:36:24.531Z,41.00
2018-06-13T14:41:22.834Z,41.40
2018-06-13T14:43:52.152Z,42.60
2018-06-13T14:48:49.832Z,41.90
2018-06-13T14:53:47.891Z,42.20
2018-06-13T14:56:22.291Z,44.40
2018-06-13T15:03:49.007Z,43.30
2018-06-13T15:11:15.503Z,43.30
2018-06-13T15:13:44.571Z,43.90
2018-06-13T15:26:08.147Z,46.10
2018-06-13T15:28:37.219Z,45.40
2018-06-13T15:33:35.271Z,45.40
2018-06-13T15:38:33.247Z,45.10
2018-06-13T15:43:30.978Z,47.20
2018-06-13T15:48:28.615Z,47.20
2018-06-13T15:53:32.954Z,47.00
2018-06-13T15:56:02.030Z,46.40
2018-06-13T16:00:59.724Z,46.40
2018-06-13T16:20:51.774Z,47.50
2018-06-13T16:30:46.763Z,49.70
2018-06-13T16:55:46.875Z,56.40
2018-06-13T16:58:15.924Z,56.40
2018-06-13T17:00:44.976Z,58.30
2018-06-13T17:05:42.698Z,59.00
2018-06-13T17:08:11.768Z,59.10
2018-06-13T17:28:01.393Z,60.00
2018-06-13T17:40:25.269Z,59.60
2018-06-13T17:47:52.299Z,59.30
2018-06-13T17:52:50.052Z,59.40
2018-06-13T18:02:45.067Z,63.10
2018-06-13T18:22:36.157Z,65.10
2018-06-13T18:30:02.983Z,67.40
2018-06-13T18:37:29.323Z,68.80
2018-06-13T19:04:44.964Z,75.00
2018-06-13T19:41:55.927Z,83.30
2018-06-13T20:04:25.066Z,83.90
2018-06-13T20:06:54.109Z,84.40
2018-06-13T20:14:25.867Z,85.40
2018-06-13T20:17:00.012Z,85.80
2018-06-13T20:27:07.901Z,86.10
2018-06-13T20:29:42.333Z,85.80
2018-06-13T20:39:37.589Z,86.00
2018-06-13T20:44:35.339Z,86.10
2018-06-13T20:47:04.395Z,86.40
2018-06-13T20:56:59.355Z,86.30
2018-06-13T20:59:28.407Z,86.40
2018-06-13T21:01:57.464Z,85.50
2018-06-13T21:06:55.464Z,87.10
2018-06-13T21:19:19.257Z,89.30
2018-06-13T21:39:10.659Z,86.10
2018-06-13T21:41:40.149Z,86.10
2018-06-13T21:46:38.276Z,86.00
2018-06-13T21:56:33.703Z,86.90
2018-06-13T22:11:26.167Z,86.20
2018-06-13T22:16:23.868Z,87.00
2018-06-13T22:18:52.911Z,86.70
2018-06-13T22:23:50.644Z,85.80
2018-06-13T22:26:19.689Z,85.60
2018-06-13T22:28:48.984Z,84.80
2018-06-13T22:31:18.040Z,85.10
2018-06-13T22:33:47.117Z,86.10
2018-06-13T22:36:16.148Z,87.30
2018-06-13T22:38:45.167Z,87.90
2018-06-13T22:41:14.244Z,87.90
2018-06-13T22:48:40.575Z,88.60
2018-06-13T22:53:38.851Z,89.00
2018-06-13T22:56:07.902Z,88.80
2018-06-13T22:58:36.924Z,89.10
2018-06-13T23:01:11.172Z,88.20
2018-06-13T23:03:40.659Z,87.20
2018-06-13T23:06:10.699Z,87.80
2018-06-13T23:08:40.188Z,87.10
2018-06-13T23:16:06.998Z,88.00
2018-06-13T23:18:36.040Z,88.60
2018-06-13T23:28:30.995Z,90.40
2018-06-13T23:31:00.038Z,90.60
2018-06-13T23:33:29.080Z,90.70
2018-06-13T23:35:58.164Z,90.80
2018-06-13T23:40:55.862Z,90.20
2018-06-13T23:45:53.540Z,89.70
2018-06-13T23:48:22.589Z,89.70
2018-06-13T23:58:17.527Z,89.20
